createdAt,value
2023-01-25T00:00:48.869Z,-1.30
2023-01-25T00:03:21.104Z,-1.22
2023-01-25T00:05:59.741Z,-1.21
2023-01-25T00:08:32.087Z,-1.22
2023-01-25T00:11:04.389Z,-1.17
2023-01-25T00:13:36.368Z,-1.11
2023-01-25T00:16:08.514Z,-1.13
2023-01-25T00:18:40.709Z,-1.22
2023-01-25T00:21:14.034Z,-1.15
2023-01-25T00:23:46.149Z,-1.06
2023-01-25T00:26:18.864Z,-1.01
2023-01-25T00:28:51.408Z,-1.12
2023-01-25T00:31:26.748Z,-1.09
2023-01-25T00:34:01.800Z,-1.12
2023-01-25T00:36:40.224Z,-1.17
2023-01-25T00:39:12.916Z,-1.13
2023-01-25T00:41:45.008Z,-1.15
2023-01-25T00:44:17.096Z,-1.23
2023-01-25T00:46:49.342Z,-1.18
2023-01-25T00:49:22.440Z,-1.25
2023-01-25T00:51:55.450Z,-1.29
2023-01-25T00:54:27.534Z,-1.30
2023-01-25T00:56:59.777Z,-1.38
2023-01-25T00:59:32.635Z,-1.40
2023-01-25T01:02:04.931Z,-1.38
2023-01-25T01:04:37.224Z,-1.43
2023-01-25T01:07:11.679Z,-1.37
2023-01-25T01:09:44.173Z,-1.33
2023-01-25T01:12:16.275Z,-1.25
2023-01-25T01:14:48.274Z,-1.12
2023-01-25T01:17:20.383Z,-1.00
2023-01-25T01:19:52.867Z,-0.92
2023-01-25T01:22:25.686Z,-0.94
2023-01-25T01:24:57.781Z,-1.00
2023-01-25T01:27:29.843Z,-0.98
2023-01-25T01:30:02.832Z,-1.07
2023-01-25T01:32:35.275Z,-1.05
2023-01-25T01:35:08.442Z,-1.15
2023-01-25T01:37:42.438Z,-1.14
2023-01-25T01:40:14.835Z,-1.06
2023-01-25T01:42:56.426Z,-1.01
2023-01-25T01:45:59.427Z,-1.04
2023-01-25T01:48:41.108Z,-1.13
2023-01-25T01:51:19.863Z,-1.08
2023-01-25T01:53:55.288Z,-1.11
2023-01-25T01:56:30.854Z,-0.94
2023-01-25T01:59:07.033Z,-0.87
2023-01-25T02:01:39.380Z,-0.86
2023-01-25T02:04:12.957Z,-0.89
2023-01-25T02:06:48.054Z,-0.84
2023-01-25T02:09:23.521Z,-0.73
2023-01-25T02:11:56.537Z,-0.81
2023-01-25T02:14:29.077Z,-0.76
2023-01-25T02:17:03.496Z,-0.77
2023-01-25T02:19:43.416Z,-0.73
2023-01-25T02:22:16.031Z,-0.78
2023-01-25T02:24:51.541Z,-0.82
2023-01-25T02:27:24.248Z,-0.72
2023-01-25T02:29:56.773Z,-0.97
2023-01-25T02:32:28.751Z,-1.11
2023-01-25T02:35:00.933Z,-1.25
2023-01-25T02:37:33.430Z,-1.26
2023-01-25T02:40:06.159Z,-1.37
2023-01-25T02:42:41.475Z,-1.44
2023-01-25T02:45:15.970Z,-1.44
2023-01-25T02:47:48.227Z,-1.54
2023-01-25T02:50:20.502Z,-1.59
2023-01-25T02:52:52.488Z,-1.50
2023-01-25T02:55:24.566Z,-1.54
2023-01-25T02:57:57.491Z,-1.52
2023-01-25T03:00:29.705Z,-1.44
2023-01-25T03:03:01.831Z,-1.28
2023-01-25T03:05:33.995Z,-1.20
2023-01-25T03:08:06.220Z,-1.22
2023-01-25T03:10:38.381Z,-1.20
2023-01-25T03:13:11.496Z,-1.21
2023-01-25T03:15:43.580Z,-1.18
2023-01-25T03:18:15.763Z,-1.27
2023-01-25T03:20:48.476Z,-1.23
2023-01-25T03:23:21.207Z,-1.33
2023-01-25T03:25:53.338Z,-1.27
2023-01-25T03:28:26.131Z,-1.29
2023-01-25T03:30:59.088Z,-1.35
2023-01-25T03:33:31.220Z,-1.49
2023-01-25T03:36:03.764Z,-1.58
2023-01-25T03:38:36.246Z,-1.65
2023-01-25T03:41:08.616Z,-1.65
2023-01-25T03:43:41.430Z,-1.53
2023-01-25T03:46:13.803Z,-1.47
2023-01-25T03:48:46.361Z,-1.50
2023-01-25T03:51:18.505Z,-1.62
2023-01-25T03:53:50.754Z,-1.60
2023-01-25T03:56:23.462Z,-1.67
2023-01-25T03:59:10.662Z,-1.54
2023-01-25T04:01:42.804Z,-1.44
2023-01-25T04:04:14.880Z,-1.39
2023-01-25T04:06:49.467Z,-1.37
2023-01-25T04:09:21.838Z,-1.26
2023-01-25T04:11:57.018Z,-1.27
2023-01-25T04:14:43.586Z,-1.22
2023-01-25T04:17:19.651Z,-1.19
2023-01-25T04:19:58.212Z,-1.24
2023-01-25T04:22:35.196Z,-1.26
2023-01-25T04:25:09.390Z,-1.24
2023-01-25T04:27:46.400Z,-1.14
2023-01-25T04:30:21.647Z,-1.12
2023-01-25T04:32:54.824Z,-1.00
2023-01-25T04:35:31.436Z,-1.01
2023-01-25T04:38:05.444Z,-1.08
2023-01-25T04:40:42.492Z,-1.13
2023-01-25T04:43:15.077Z,-1.08
2023-01-25T04:45:49.349Z,-1.17
2023-01-25T04:48:29.632Z,-1.07
2023-01-25T04:51:05.768Z,-0.99
2023-01-25T04:53:39.308Z,-1.06
2023-01-25T04:56:12.343Z,-1.09
2023-01-25T04:58:56.018Z,-1.01
2023-01-25T05:01:29.014Z,-1.12
2023-01-25T05:04:01.905Z,-1.16
2023-01-25T05:06:43.932Z,-1.18
2023-01-25T05:09:17.012Z,-1.15
2023-01-25T05:11:50.151Z,-1.11
2023-01-25T05:14:45.853Z,-1.22
2023-01-25T05:17:18.590Z,-1.30
2023-01-25T05:19:50.752Z,-1.25
2023-01-25T05:22:26.257Z,-1.22
2023-01-25T05:24:58.877Z,-1.20
2023-01-25T05:27:30.668Z,-1.12
2023-01-25T05:30:02.771Z,-1.20
2023-01-25T05:33:13.675Z,-1.23
2023-01-25T05:35:45.920Z,-1.40
2023-01-25T05:38:18.100Z,-1.42
2023-01-25T05:40:50.468Z,-1.43
2023-01-25T05:43:23.673Z,-1.49
2023-01-25T05:45:55.808Z,-1.62
2023-01-25T05:48:29.406Z,-1.70
2023-01-25T05:51:03.043Z,-1.68
2023-01-25T05:53:37.284Z,-1.66
2023-01-25T05:56:09.965Z,-1.65
2023-01-25T05:58:42.291Z,-1.67
2023-01-25T06:01:14.367Z,-1.66
2023-01-25T06:03:55.110Z,-1.59
2023-01-25T06:06:28.387Z,-1.47
2023-01-25T06:09:00.992Z,-1.58
2023-01-25T06:11:33.079Z,-1.65
2023-01-25T06:14:05.458Z,-1.65
2023-01-25T06:16:37.547Z,-1.49
2023-01-25T06:19:35.129Z,-1.43
2023-01-25T06:22:26.011Z,-1.31
2023-01-25T06:24:58.134Z,-1.39
2023-01-25T06:27:30.177Z,-1.54
2023-01-25T06:30:02.274Z,-1.55
2023-01-25T06:32:34.314Z,-1.65
2023-01-25T06:35:07.712Z,-1.65
2023-01-25T06:37:39.976Z,-1.67
2023-01-25T06:40:12.244Z,-1.80
2023-01-25T06:42:44.961Z,-1.77
2023-01-25T06:45:17.089Z,-1.75
2023-01-25T06:47:49.304Z,-1.74
2023-01-25T06:50:22.275Z,-1.81
2023-01-25T06:52:54.593Z,-1.74
2023-01-25T06:55:26.732Z,-1.74
2023-01-25T06:58:00.023Z,-1.81
2023-01-25T07:00:32.549Z,-1.77
2023-01-25T07:03:04.592Z,-1.73
2023-01-25T07:05:37.383Z,-1.62
2023-01-25T07:08:09.518Z,-1.66
2023-01-25T07:10:41.576Z,-1.66
2023-01-25T07:13:13.541Z,-1.62
2023-01-25T07:15:51.475Z,-1.62
2023-01-25T07:18:23.805Z,-1.66
2023-01-25T07:21:01.963Z,-1.66
2023-01-25T07:23:34.306Z,-1.68
2023-01-25T07:26:06.511Z,-1.60
2023-01-25T07:28:38.639Z,-1.66
2023-01-25T07:31:10.871Z,-1.60
2023-01-25T07:33:43.085Z,-1.72
2023-01-25T07:36:16.005Z,-1.77
2023-01-25T07:38:48.338Z,-1.74
2023-01-25T07:41:20.495Z,-1.83
2023-01-25T07:43:52.845Z,-1.78
2023-01-25T07:46:54.454Z,-1.70
2023-01-25T07:49:26.498Z,-1.73
2023-01-25T07:51:59.237Z,-1.59
2023-01-25T07:54:31.328Z,-1.58
2023-01-25T07:57:03.461Z,-1.50
2023-01-25T07:59:35.571Z,-1.46
2023-01-25T08:02:08.137Z,-1.53
2023-01-25T08:04:41.959Z,-1.60
2023-01-25T08:07:14.723Z,-1.55
2023-01-25T08:09:47.113Z,-1.54
2023-01-25T08:12:19.221Z,-1.53
2023-01-25T08:14:51.276Z,-1.51
2023-01-25T08:17:23.556Z,-1.47
2023-01-25T08:19:55.830Z,-1.59
2023-01-25T08:22:28.520Z,-1.58
2023-01-25T08:25:00.963Z,-1.62
2023-01-25T08:27:33.020Z,-1.60
2023-01-25T08:30:05.609Z,-1.52
2023-01-25T08:32:38.244Z,-1.57
2023-01-25T08:35:10.732Z,-1.51
2023-01-25T08:37:43.615Z,-1.49
2023-01-25T08:40:16.199Z,-1.56
2023-01-25T08:42:48.703Z,-1.50
2023-01-25T08:45:21.008Z,-1.50
2023-01-25T08:47:53.575Z,-1.49
2023-01-25T08:50:25.666Z,-1.52
2023-01-25T08:52:58.405Z,-1.48
2023-01-25T08:55:30.720Z,-1.51
2023-01-25T08:58:02.753Z,-1.42
2023-01-25T09:00:35.057Z,-1.40
2023-01-25T09:03:07.205Z,-1.30
2023-01-25T09:05:39.479Z,-1.33
2023-01-25T09:08:12.165Z,-1.37
2023-01-25T09:10:44.260Z,-1.45
2023-01-25T09:13:16.273Z,-1.36
2023-01-25T09:15:48.425Z,-1.40
2023-01-25T09:18:20.492Z,-1.28
2023-01-25T09:20:52.578Z,-1.30
2023-01-25T09:23:26.179Z,-1.33
2023-01-25T09:25:58.749Z,-1.44
2023-01-25T09:28:31.575Z,-1.45
2023-01-25T09:31:20.444Z,-1.40
2023-01-25T09:34:17.036Z,-1.38
2023-01-25T09:36:49.135Z,-1.44
2023-01-25T09:39:21.828Z,-1.45
2023-01-25T09:42:15.125Z,-1.41
2023-01-25T09:44:59.726Z,-1.39
2023-01-25T09:47:38.105Z,-1.50
2023-01-25T09:50:31.021Z,-1.31
2023-01-25T09:53:21.190Z,-1.19
2023-01-25T09:55:58.035Z,-1.28
2023-01-25T09:58:34.581Z,-1.14
2023-01-25T10:01:37.712Z,-1.25
2023-01-25T10:04:14.617Z,-1.27
2023-01-25T10:06:59.626Z,-1.26
2023-01-25T10:09:37.188Z,-1.19
2023-01-25T10:12:15.105Z,-1.23
2023-01-25T10:14:47.339Z,-1.17
2023-01-25T10:17:23.567Z,-1.22
2023-01-25T10:20:04.087Z,-1.16
2023-01-25T10:22:39.972Z,-1.07
2023-01-25T10:25:26.923Z,-1.12
2023-01-25T10:28:08.686Z,-1.04
2023-01-25T10:30:45.682Z,-1.06
2023-01-25T10:33:18.496Z,-0.97
2023-01-25T10:35:50.557Z,-0.98
2023-01-25T10:38:25.732Z,-0.87
2023-01-25T10:41:01.437Z,-0.91
2023-01-25T10:43:34.240Z,-0.79
2023-01-25T10:46:15.722Z,-0.73
2023-01-25T10:48:48.048Z,-0.68
2023-01-25T10:51:30.293Z,-0.79
2023-01-25T10:54:03.533Z,-0.69
2023-01-25T10:56:38.800Z,-0.66
2023-01-25T10:59:22.786Z,-0.66
2023-01-25T11:01:54.855Z,-0.63
2023-01-25T11:04:31.510Z,-0.73
2023-01-25T11:07:05.237Z,-0.61
2023-01-25T11:09:38.391Z,-0.59
2023-01-25T11:12:16.923Z,-0.61
2023-01-25T11:14:49.948Z,-0.45
2023-01-25T11:17:26.625Z,-0.46
2023-01-25T11:20:15.943Z,-0.58
2023-01-25T11:22:52.063Z,-0.46
2023-01-25T11:25:25.353Z,-0.33
2023-01-25T11:28:10.751Z,-0.39
2023-01-25T11:30:43.793Z,-0.44
2023-01-25T11:33:16.739Z,-0.36
2023-01-25T11:35:58.749Z,-0.29
2023-01-25T11:38:30.849Z,-0.24
2023-01-25T11:41:09.856Z,-0.20
2023-01-25T11:43:51.888Z,-0.37
2023-01-25T11:46:34.790Z,-0.42
2023-01-25T11:49:28.205Z,-0.44
2023-01-25T11:52:05.853Z,-0.43
2023-01-25T11:54:50.889Z,-0.35
2023-01-25T11:57:34.207Z,-0.23
2023-01-25T12:00:17.896Z,-0.27
2023-01-25T12:03:06.433Z,-0.31
2023-01-25T12:05:43.376Z,-0.35
2023-01-25T12:08:22.154Z,-0.26
2023-01-25T12:10:58.460Z,-0.29
2023-01-25T12:13:38.667Z,-0.19
2023-01-25T12:16:26.787Z,-0.29
2023-01-25T12:19:10.782Z,-0.39
2023-01-25T12:21:50.079Z,-0.41
2023-01-25T12:24:32.655Z,-0.27
2023-01-25T12:27:11.928Z,-0.31
2023-01-25T12:29:46.704Z,-0.27
2023-01-25T12:32:23.454Z,-0.31
2023-01-25T12:35:03.639Z,-0.38
2023-01-25T12:37:39.564Z,-0.36
2023-01-25T12:40:14.131Z,-0.34
2023-01-25T12:42:50.971Z,-0.31
2023-01-25T12:45:25.162Z,-0.29
2023-01-25T12:48:00.360Z,-0.26
2023-01-25T12:50:38.498Z,-0.19
2023-01-25T12:53:17.020Z,-0.15
2023-01-25T12:55:49.642Z,-0.15
2023-01-25T12:58:36.979Z,-0.12
2023-01-25T13:01:16.317Z,-0.06
2023-01-25T13:03:58.315Z,-0.12
2023-01-25T13:06:36.743Z,-0.07
2023-01-25T13:09:15.124Z,0.01
2023-01-25T13:11:47.848Z,0.01
2023-01-25T13:14:27.670Z,0.05
2023-01-25T13:17:10.718Z,-0.03
2023-01-25T13:19:42.861Z,-0.01
2023-01-25T13:22:35.599Z,-0.09
2023-01-25T13:25:10.443Z,-0.16
2023-01-25T13:27:42.795Z,-0.14
2023-01-25T13:30:29.571Z,-0.02
2023-01-25T13:33:06.595Z,0.08
2023-01-25T13:35:42.372Z,0.04
2023-01-25T13:38:32.077Z,-0.03
2023-01-25T13:41:11.715Z,-0.10
2023-01-25T13:43:46.065Z,-0.06
2023-01-25T13:46:22.051Z,0.04
2023-01-25T13:48:58.345Z,0.00
2023-01-25T13:51:33.610Z,0.01
2023-01-25T13:54:06.375Z,0.01
2023-01-25T13:56:38.439Z,-0.09
2023-01-25T13:59:23.841Z,-0.16
2023-01-25T14:01:56.694Z,-0.07
2023-01-25T14:04:29.843Z,-0.10
2023-01-25T14:07:09.157Z,-0.06
2023-01-25T14:09:43.120Z,0.06
2023-01-25T14:12:25.106Z,-0.04
2023-01-25T14:14:57.199Z,0.08
2023-01-25T14:17:29.324Z,0.02
2023-01-25T14:20:01.888Z,0.02
2023-01-25T14:22:35.077Z,-0.01
2023-01-25T14:25:11.185Z,-0.08
2023-01-25T14:27:44.481Z,-0.22
2023-01-25T14:30:18.979Z,-0.30
2023-01-25T14:32:51.832Z,-0.32
2023-01-25T14:35:54.610Z,-0.35
2023-01-25T14:38:33.044Z,-0.50
2023-01-25T14:41:10.997Z,-0.53
2023-01-25T14:43:44.661Z,-0.48
2023-01-25T14:46:21.123Z,-0.52
2023-01-25T14:49:06.427Z,-0.50
2023-01-25T14:51:40.653Z,-0.60
2023-01-25T14:54:17.613Z,-0.71
2023-01-25T14:56:51.831Z,-0.70
2023-01-25T14:59:26.903Z,-0.77
2023-01-25T15:02:01.002Z,-0.82
2023-01-25T15:04:35.394Z,-0.92
2023-01-25T15:07:29.759Z,-0.84
2023-01-25T15:10:02.966Z,-0.85
2023-01-25T15:12:35.711Z,-0.85
2023-01-25T15:15:17.541Z,-0.77
2023-01-25T15:17:50.201Z,-0.96
2023-01-25T15:20:28.007Z,-0.77
2023-01-25T15:23:01.496Z,-0.81
2023-01-25T15:25:33.624Z,-0.82
2023-01-25T15:28:06.603Z,-0.75
2023-01-25T15:30:38.748Z,-0.64
2023-01-25T15:33:17.119Z,-0.79
2023-01-25T15:35:49.738Z,-0.85
2023-01-25T15:38:22.219Z,-0.72
2023-01-25T15:40:59.611Z,-0.87
2023-01-25T15:43:32.358Z,-1.01
2023-01-25T15:46:05.344Z,-1.06
2023-01-25T15:48:38.299Z,-1.12
2023-01-25T15:51:11.260Z,-1.03
2023-01-25T15:53:43.724Z,-1.18
2023-01-25T15:56:17.800Z,-1.18
2023-01-25T15:58:51.787Z,-1.25
2023-01-25T16:01:26.444Z,-1.30
2023-01-25T16:03:59.384Z,-1.30
2023-01-25T16:06:33.392Z,-1.44
2023-01-25T16:09:12.745Z,-1.55
2023-01-25T16:11:45.219Z,-1.54
2023-01-25T16:14:18.131Z,-1.51
2023-01-25T16:16:51.195Z,-1.61
2023-01-25T16:19:23.749Z,-1.58
2023-01-25T16:21:55.822Z,-1.78
2023-01-25T16:24:27.993Z,-1.76
2023-01-25T16:27:00.915Z,-1.80
2023-01-25T16:29:33.651Z,-1.74
2023-01-25T16:32:05.901Z,-1.68
2023-01-25T16:34:38.088Z,-1.62
2023-01-25T16:37:14.107Z,-1.61
2023-01-25T16:39:46.202Z,-1.60
2023-01-25T16:42:18.332Z,-1.68
2023-01-25T16:44:50.997Z,-1.61
2023-01-25T16:47:23.058Z,-1.66
2023-01-25T16:49:55.199Z,-1.58
2023-01-25T16:52:27.306Z,-1.75
2023-01-25T16:54:59.597Z,-1.71
2023-01-25T16:57:31.667Z,-1.84
2023-01-25T17:00:05.219Z,-1.81
2023-01-25T17:02:38.635Z,-1.83
2023-01-25T17:05:12.233Z,-1.89
2023-01-25T17:07:48.429Z,-1.80
2023-01-25T17:10:20.501Z,-1.99
2023-01-25T17:12:52.677Z,-1.98
2023-01-25T17:15:25.361Z,-1.96
2023-01-25T17:17:57.516Z,-2.04
2023-01-25T17:20:29.570Z,-2.13
2023-01-25T17:23:02.015Z,-2.21
2023-01-25T17:25:40.351Z,-2.09
2023-01-25T17:28:12.644Z,-2.16
2023-01-25T17:30:45.438Z,-2.23
2023-01-25T17:33:18.080Z,-2.16
2023-01-25T17:35:50.383Z,-2.18
2023-01-25T17:38:23.422Z,-2.16
2023-01-25T17:40:55.514Z,-2.13
2023-01-25T17:43:27.731Z,-2.16
2023-01-25T17:46:00.533Z,-2.14
2023-01-25T17:48:32.603Z,-2.15
2023-01-25T17:51:04.782Z,-2.28
2023-01-25T17:53:36.997Z,-2.13
2023-01-25T17:56:10.701Z,-2.25
2023-01-25T17:58:42.788Z,-2.24
2023-01-25T18:01:17.062Z,-2.21
2023-01-25T18:03:50.145Z,-2.30
2023-01-25T18:06:24.332Z,-2.36
2023-01-25T18:08:59.232Z,-2.39
2023-01-25T18:11:33.123Z,-2.36
2023-01-25T18:14:07.627Z,-2.30
2023-01-25T18:16:40.974Z,-2.34
2023-01-25T18:19:13.199Z,-2.40
2023-01-25T18:21:45.928Z,-2.40
2023-01-25T18:24:25.588Z,-2.34
2023-01-25T18:26:59.899Z,-2.27
2023-01-25T18:29:40.223Z,-2.23
2023-01-25T18:32:13.057Z,-2.23
2023-01-25T18:34:46.153Z,-2.21
2023-01-25T18:37:19.794Z,-2.26
2023-01-25T18:39:52.695Z,-2.12
2023-01-25T18:42:25.670Z,-2.07
2023-01-25T18:44:57.863Z,-1.98
2023-01-25T18:47:31.201Z,-2.08
2023-01-25T18:50:03.978Z,-2.19
2023-01-25T18:52:36.250Z,-2.13
2023-01-25T18:55:08.821Z,-2.09
2023-01-25T18:57:41.387Z,-2.22
2023-01-25T19:00:14.225Z,-2.11
2023-01-25T19:02:47.143Z,-2.27
2023-01-25T19:05:20.239Z,-2.27
2023-01-25T19:07:52.344Z,-2.40
2023-01-25T19:10:24.417Z,-2.32
2023-01-25T19:12:57.660Z,-2.28
2023-01-25T19:15:30.199Z,-2.28
2023-01-25T19:18:02.970Z,-2.24
2023-01-25T19:20:35.741Z,-2.26
2023-01-25T19:23:08.064Z,-2.26
2023-01-25T19:25:40.733Z,-2.21
2023-01-25T19:28:14.061Z,-2.28
2023-01-25T19:30:46.439Z,-2.25
2023-01-25T19:33:19.210Z,-2.30
2023-01-25T19:35:58.236Z,-2.31
2023-01-25T19:38:30.629Z,-2.33
2023-01-25T19:41:04.538Z,-2.35
2023-01-25T19:43:36.868Z,-2.39
2023-01-25T19:46:09.711Z,-2.33
2023-01-25T19:48:42.904Z,-2.23
2023-01-25T19:51:15.706Z,-2.15
2023-01-25T19:53:52.303Z,-2.17
2023-01-25T19:56:24.632Z,-2.20
2023-01-25T19:58:57.174Z,-2.23
2023-01-25T20:01:30.052Z,-2.18
2023-01-25T20:04:05.847Z,-2.13
2023-01-25T20:06:38.164Z,-2.17
2023-01-25T20:09:11.590Z,-2.03
2023-01-25T20:11:44.372Z,-2.04
2023-01-25T20:14:16.468Z,-2.00
2023-01-25T20:16:52.095Z,-2.06
2023-01-25T20:19:24.776Z,-1.94
2023-01-25T20:21:59.434Z,-1.84
2023-01-25T20:24:32.637Z,-1.88
2023-01-25T20:27:06.705Z,-1.81
2023-01-25T20:29:39.458Z,-1.87
2023-01-25T20:32:26.633Z,-1.95
2023-01-25T20:35:06.015Z,-1.94
2023-01-25T20:37:38.309Z,-1.99
2023-01-25T20:40:11.883Z,-1.98
2023-01-25T20:42:43.937Z,-1.91
2023-01-25T20:45:16.585Z,-2.03
2023-01-25T20:47:48.660Z,-1.87
2023-01-25T20:50:21.558Z,-2.06
2023-01-25T20:52:53.607Z,-2.08
2023-01-25T20:55:25.985Z,-2.07
2023-01-25T20:57:58.085Z,-2.19
2023-01-25T21:00:30.406Z,-2.26
2023-01-25T21:03:02.581Z,-2.12
2023-01-25T21:05:35.276Z,-2.06
2023-01-25T21:08:07.476Z,-2.10
2023-01-25T21:10:39.536Z,-2.05
2023-01-25T21:13:11.577Z,-2.05
2023-01-25T21:15:43.603Z,-1.99
2023-01-25T21:18:16.001Z,-1.98
2023-01-25T21:20:48.730Z,-1.94
2023-01-25T21:23:20.840Z,-1.90
2023-01-25T21:25:52.888Z,-1.91
2023-01-25T21:28:24.951Z,-1.91
2023-01-25T21:30:57.225Z,-1.80
2023-01-25T21:33:29.509Z,-1.83
2023-01-25T21:36:07.667Z,-1.91
2023-01-25T21:38:40.515Z,-1.96
2023-01-25T21:41:13.540Z,-1.97
2023-01-25T21:44:04.077Z,-1.98
2023-01-25T21:46:36.420Z,-1.97
2023-01-25T21:49:35.925Z,-2.03
2023-01-25T21:52:08.758Z,-2.05
2023-01-25T21:54:40.849Z,-2.15
2023-01-25T21:57:12.856Z,-2.21
2023-01-25T21:59:45.118Z,-2.16
2023-01-25T22:02:17.512Z,-2.10
2023-01-25T22:04:49.622Z,-2.14
2023-01-25T22:07:23.639Z,-2.18
2023-01-25T22:09:55.809Z,-2.18
2023-01-25T22:12:27.893Z,-1.99
2023-01-25T22:15:00.916Z,-1.91
2023-01-25T22:17:33.173Z,-1.95
2023-01-25T22:20:07.312Z,-2.04
2023-01-25T22:22:39.957Z,-1.95
2023-01-25T22:25:11.994Z,-1.84
2023-01-25T22:27:46.420Z,-1.87
2023-01-25T22:30:18.436Z,-1.96
2023-01-25T22:32:50.634Z,-1.93
2023-01-25T22:35:22.656Z,-2.04
2023-01-25T22:37:55.388Z,-2.13
2023-01-25T22:40:27.569Z,-2.21
2023-01-25T22:42:59.673Z,-2.22
2023-01-25T22:45:31.790Z,-2.23
2023-01-25T22:48:04.051Z,-2.35
2023-01-25T22:50:36.104Z,-2.46
2023-01-25T22:53:08.848Z,-2.48
2023-01-25T22:55:41.669Z,-2.49
2023-01-25T22:58:13.719Z,-2.46
2023-01-25T23:00:45.691Z,-2.47
2023-01-25T23:03:18.006Z,-2.46
2023-01-25T23:05:57.564Z,-2.43
2023-01-25T23:08:33.452Z,-2.61
2023-01-25T23:11:06.411Z,-2.61
2023-01-25T23:13:39.300Z,-2.69
2023-01-25T23:16:11.406Z,-2.64
2023-01-25T23:18:52.104Z,-2.62
2023-01-25T23:21:26.608Z,-2.64
2023-01-25T23:24:00.320Z,-2.65
2023-01-25T23:26:37.709Z,-2.60
2023-01-25T23:29:11.101Z,-2.62
2023-01-25T23:31:43.640Z,-2.58
2023-01-25T23:34:15.855Z,-2.70
2023-01-25T23:36:47.886Z,-2.72
2023-01-25T23:39:20.613Z,-2.72
2023-01-25T23:41:52.694Z,-2.71
2023-01-25T23:44:24.686Z,-2.71
2023-01-25T23:46:56.735Z,-2.79
2023-01-25T23:49:28.760Z,-2.84
2023-01-25T23:52:01.063Z,-2.90
2023-01-25T23:54:33.709Z,-2.79
2023-01-25T23:57:05.812Z,-2.74
2023-01-25T23:59:38.002Z,-2.91
